Time;durP1;ratioP1;P1;durP2;ratioP2;P2;SDS_P1;SDS_P2;PMS_P1;PMS_P2;Temp;Humidity;BMP_temperature;BMP_pressure;BME280_temperature;BME280_humidity;BME280_pressure;Samples;Min_cycle;Max_cycle;Signal;HPM_P1;HPM_P2
2022/12/26 00:02:02;;;;;;;4.05;1.10;;;;;;;;;;5024131;28;20039;-69
2022/12/26 00:04:29;;;;;;;6.18;1.35;;;;;;;;;;5024258;28;20082;-69
2022/12/26 00:06:55;;;;;;;3.90;1.00;;;;;;;;;;5026215;28;20044;-70
2022/12/26 00:09:22;;;;;;;5.05;1.38;;;;;;;;;;5023722;28;20049;-68
2022/12/26 00:11:49;;;;;;;4.07;0.98;;;;;;;;;;5025443;28;20064;-69
2022/12/26 00:14:16;;;;;;;3.45;1.13;;;;;;;;;;5024331;28;20052;-69
2022/12/26 00:16:43;;;;;;;5.95;1.40;;;;;;;;;;5023912;28;20117;-69
2022/12/26 00:19:10;;;;;;;9.05;1.90;;;;;;;;;;5025030;28;20037;-69
2022/12/26 00:21:37;;;;;;;5.07;1.60;;;;;;;;;;5021868;28;20089;-70
2022/12/26 00:24:04;;;;;;;7.55;1.88;;;;;;;;;;5023083;28;20041;-69
2022/12/26 00:26:32;;;;;;;6.03;2.33;;;;;;;;;;5023180;28;20782;-69
2022/12/26 00:28:59;;;;;;;6.95;2.10;;;;;;;;;;5022957;28;20520;-69
2022/12/26 00:31:30;;;;;;;7.38;2.20;;;;;;;;;;5026065;28;20033;-71
2022/12/26 00:33:57;;;;;;;7.38;2.30;;;;;;;;;;5026393;28;20049;-69
2022/12/26 00:36:28;;;;;;;14.88;2.80;;;;;;;;;;5026787;28;20065;-69
2022/12/26 00:38:56;;;;;;;7.50;1.95;;;;;;;;;;5025140;28;20042;-70
2022/12/26 00:41:23;;;;;;;14.32;2.83;;;;;;;;;;5025327;28;20053;-69
2022/12/26 00:43:50;;;;;;;6.07;2.42;;;;;;;;;;5026850;28;20060;-68
2022/12/26 00:46:17;;;;;;;7.35;2.17;;;;;;;;;;5025891;28;20050;-72
2022/12/26 00:48:44;;;;;;;5.85;2.13;;;;;;;;;;5025655;28;20033;-69
2022/12/26 00:51:11;;;;;;;16.05;6.05;;;;;;;;;;5023746;28;20048;-68
2022/12/26 00:53:37;;;;;;;12.30;4.75;;;;;;;;;;5024282;28;20044;-68
2022/12/26 00:56:04;;;;;;;22.05;6.07;;;;;;;;;;5022724;28;20045;-69
2022/12/26 00:58:31;;;;;;;13.63;5.05;;;;;;;;;;5022147;28;20045;-70
2022/12/26 01:01:17;;;;;;;11.63;4.40;;;;;;;;;;5025285;28;20032;-69
2022/12/26 01:03:45;;;;;;;14.88;4.75;;;;;;;;;;5023163;28;20197;-70
2022/12/26 01:06:12;;;;;;;11.82;3.72;;;;;;;;;;5024039;28;20030;-68
2022/12/26 01:08:39;;;;;;;11.13;4.38;;;;;;;;;;5023007;28;20045;-70
2022/12/26 01:11:10;;;;;;;10.18;4.00;;;;;;;;;;5024448;28;20678;-68
2022/12/26 01:13:37;;;;;;;11.18;4.50;;;;;;;;;;5025698;28;20079;-70
2022/12/26 01:16:05;;;;;;;12.98;4.72;;;;;;;;;;5023645;28;20033;-69
2022/12/26 01:18:31;;;;;;;12.30;4.82;;;;;;;;;;5021535;28;20068;-68
2022/12/26 01:21:01;;;;;;;14.15;6.10;;;;;;;;;;5023488;28;20393;-68
2022/12/26 01:23:28;;;;;;;13.18;5.25;;;;;;;;;;5023025;28;20037;-69
2022/12/26 01:25:55;;;;;;;15.75;5.60;;;;;;;;;;5022727;28;20779;-71
2022/12/26 01:28:22;;;;;;;17.33;6.57;;;;;;;;;;5023619;28;20671;-69
2022/12/26 01:30:48;;;;;;;11.77;6.47;;;;;;;;;;5024371;28;20037;-70
2022/12/26 01:33:15;;;;;;;21.00;6.93;;;;;;;;;;5025215;28;20183;-68
2022/12/26 01:35:49;;;;;;;17.42;7.20;;;;;;;;;;5023968;28;20045;-69
2022/12/26 01:38:16;;;;;;;17.05;6.78;;;;;;;;;;5023111;28;20041;-69
2022/12/26 01:40:43;;;;;;;18.27;7.05;;;;;;;;;;5025601;28;20037;-66
2022/12/26 01:43:12;;;;;;;17.73;6.90;;;;;;;;;;5017406;28;20088;-68
2022/12/26 01:45:38;;;;;;;21.98;10.20;;;;;;;;;;5034747;28;20068;-65
2022/12/26 01:48:25;;;;;;;29.95;11.07;;;;;;;;;;5042525;28;20405;-68
2022/12/26 01:51:02;;;;;;;24.38;9.98;;;;;;;;;;5041486;28;20044;-68
2022/12/26 01:54:05;;;;;;;26.33;10.43;;;;;;;;;;5042202;28;20125;-69
2022/12/26 01:56:34;;;;;;;22.25;8.90;;;;;;;;;;5048634;28;20066;-69
2022/12/26 01:59:03;;;;;;;23.70;9.27;;;;;;;;;;5042763;28;20112;-68
2022/12/26 02:01:31;;;;;;;18.92;8.00;;;;;;;;;;5042953;28;20049;-70
2022/12/26 02:06:43;;;;;;;12.82;6.80;;;;;;;;;;5042884;28;20376;-69
2022/12/26 02:09:11;;;;;;;22.30;8.18;;;;;;;;;;5046822;28;20139;-73
2022/12/26 02:11:41;;;;;;;18.10;7.30;;;;;;;;;;5047227;28;20128;-69
2022/12/26 02:14:08;;;;;;;21.23;8.73;;;;;;;;;;5047889;28;20045;-69
2022/12/26 02:16:35;;;;;;;15.18;6.55;;;;;;;;;;5039194;28;20044;-70
2022/12/26 02:19:02;;;;;;;15.18;5.93;;;;;;;;;;5041674;28;20041;-70
2022/12/26 02:21:32;;;;;;;13.23;5.55;;;;;;;;;;5044404;28;20489;-70
2022/12/26 02:23:58;;;;;;;15.63;5.68;;;;;;;;;;5047572;28;20059;-69
2022/12/26 02:26:37;;;;;;;11.32;5.35;;;;;;;;;;5047167;28;20043;-69
2022/12/26 02:29:14;;;;;;;15.95;5.55;;;;;;;;;;5051506;28;20140;-70
2022/12/26 02:31:59;;;;;;;13.68;5.70;;;;;;;;;;5048632;28;20147;-70
2022/12/26 02:34:41;;;;;;;16.42;5.93;;;;;;;;;;5060728;28;20382;-70
2022/12/26 02:37:30;;;;;;;15.98;4.70;;;;;;;;;;5039611;28;20041;-69
2022/12/26 02:40:12;;;;;;;15.60;6.65;;;;;;;;;;5027453;28;20033;-70
2022/12/26 02:42:47;;;;;;;13.13;5.93;;;;;;;;;;5040912;28;20053;-70
2022/12/26 02:48:01;;;;;;;14.88;7.53;;;;;;;;;;5017363;28;20128;-69
2022/12/26 03:13:15;;;;;;;18.13;7.35;;;;;;;;;;5025784;28;20107;-68
2022/12/26 03:18:43;;;;;;;17.58;6.63;;;;;;;;;;5024831;28;20044;-69
2022/12/26 03:21:11;;;;;;;16.45;6.15;;;;;;;;;;5027210;28;20041;-69
2022/12/26 03:23:39;;;;;;;19.50;6.22;;;;;;;;;;5023894;28;20072;-69
2022/12/26 03:30:47;;;;;;;16.00;5.25;;;;;;;;;;5027410;28;21836;-70
2022/12/26 03:31:40;;;;;;;11.27;5.47;;;;;;;;;;5023959;28;20408;-71
2022/12/26 03:34:17;;;;;;;13.18;5.13;;;;;;;;;;5025577;28;20588;-69
2022/12/26 03:36:59;;;;;;;9.15;4.70;;;;;;;;;;5033610;28;20048;-69
2022/12/26 04:20:16;;;;;;;15.10;6.47;;;;;;;;;;5045226;28;20067;-71
2022/12/26 04:45:09;;;;;;;28.73;10.75;;;;;;;;;;5026767;28;20063;-67
2022/12/26 04:47:36;;;;;;;19.38;8.27;;;;;;;;;;5022798;28;20045;-67
2022/12/26 04:50:13;;;;;;;22.52;8.65;;;;;;;;;;5024692;28;20037;-68
2022/12/26 04:52:58;;;;;;;21.17;8.02;;;;;;;;;;5024263;28;20124;-67
2022/12/26 04:55:32;;;;;;;19.30;6.88;;;;;;;;;;5024858;28;20037;-68
2022/12/26 04:57:59;;;;;;;16.15;7.63;;;;;;;;;;5024453;28;20152;-67
2022/12/26 05:00:26;;;;;;;17.02;7.72;;;;;;;;;;5024854;28;20611;-67
2022/12/26 05:11:21;;;;;;;18.10;7.45;;;;;;;;;;5024338;28;20063;-69
2022/12/26 05:13:48;;;;;;;22.90;7.53;;;;;;;;;;5023829;28;20056;-68
2022/12/26 05:30:04;;;;;;;17.85;6.78;;;;;;;;;;5028166;28;20060;-69
2022/12/26 05:35:16;;;;;;;11.68;5.68;;;;;;;;;;5029616;28;20060;-68
2022/12/26 05:37:43;;;;;;;11.57;5.05;;;;;;;;;;5028955;28;20693;-69
2022/12/26 05:40:10;;;;;;;12.60;5.88;;;;;;;;;;5026566;28;20225;-68
2022/12/26 05:42:36;;;;;;;12.50;6.53;;;;;;;;;;5026513;28;20057;-69
2022/12/26 05:45:03;;;;;;;21.80;7.90;;;;;;;;;;5028143;28;20041;-68
2022/12/26 05:47:30;;;;;;;15.57;7.35;;;;;;;;;;5025838;28;20068;-68
2022/12/26 05:49:56;;;;;;;16.35;6.90;;;;;;;;;;5028622;28;20034;-67
2022/12/26 05:52:23;;;;;;;14.75;7.15;;;;;;;;;;5030524;28;20124;-68
2022/12/26 05:54:50;;;;;;;18.50;7.75;;;;;;;;;;5030526;28;20157;-68
2022/12/26 05:57:16;;;;;;;17.70;7.95;;;;;;;;;;5028471;28;20635;-67
2022/12/26 05:59:43;;;;;;;16.30;7.80;;;;;;;;;;5028169;28;20044;-69
2022/12/26 06:02:09;;;;;;;20.17;8.55;;;;;;;;;;5029003;28;20045;-70
2022/12/26 06:04:36;;;;;;;14.52;7.20;;;;;;;;;;5028324;28;20037;-68
2022/12/26 06:07:04;;;;;;;14.38;7.25;;;;;;;;;;5028557;28;20406;-69
2022/12/26 06:09:30;;;;;;;14.73;6.85;;;;;;;;;;5027860;28;20065;-69
2022/12/26 06:11:57;;;;;;;14.82;7.22;;;;;;;;;;5030138;28;20129;-69
2022/12/26 06:14:24;;;;;;;14.23;6.47;;;;;;;;;;5027970;28;20117;-70
2022/12/26 06:16:50;;;;;;;18.17;6.63;;;;;;;;;;5027818;28;20041;-69
2022/12/26 06:19:17;;;;;;;12.73;6.70;;;;;;;;;;5029438;28;20063;-68
2022/12/26 06:21:44;;;;;;;13.82;6.38;;;;;;;;;;5028578;28;20041;-70
2022/12/26 06:24:12;;;;;;;13.13;6.35;;;;;;;;;;5027851;28;20057;-70
2022/12/26 06:26:40;;;;;;;16.67;6.82;;;;;;;;;;5027201;28;20068;-68
2022/12/26 06:29:07;;;;;;;15.00;6.45;;;;;;;;;;5027102;28;20045;-69
2022/12/26 06:31:34;;;;;;;13.10;6.13;;;;;;;;;;5027071;28;20051;-67
2022/12/26 06:34:00;;;;;;;14.38;6.72;;;;;;;;;;5032667;28;20743;-67
2022/12/26 06:36:28;;;;;;;12.00;6.32;;;;;;;;;;5026148;28;20120;-68
2022/12/26 06:38:55;;;;;;;14.02;5.88;;;;;;;;;;5026705;28;20048;-69
2022/12/26 06:41:23;;;;;;;11.23;5.25;;;;;;;;;;5030025;28;20135;-69
2022/12/26 06:43:50;;;;;;;12.20;4.93;;;;;;;;;;5031001;28;20551;-68
2022/12/26 06:46:19;;;;;;;10.00;4.28;;;;;;;;;;5035418;28;20377;-70
2022/12/26 06:48:46;;;;;;;10.45;3.90;;;;;;;;;;5030853;28;20049;-67
2022/12/26 06:51:14;;;;;;;10.52;4.50;;;;;;;;;;5027879;28;20155;-70
2022/12/26 06:53:41;;;;;;;13.02;4.40;;;;;;;;;;5024779;28;20052;-67
2022/12/26 06:56:12;;;;;;;12.98;3.90;;;;;;;;;;5027795;28;20528;-69
2022/12/26 06:58:39;;;;;;;8.77;3.88;;;;;;;;;;5026482;28;21394;-70
2022/12/26 07:01:05;;;;;;;9.80;3.65;;;;;;;;;;5027163;28;20059;-69
2022/12/26 07:03:32;;;;;;;12.18;4.03;;;;;;;;;;5027144;28;20049;-69
2022/12/26 07:06:03;;;;;;;7.00;3.20;;;;;;;;;;5025579;28;21689;-69
2022/12/26 07:08:29;;;;;;;6.88;2.90;;;;;;;;;;5026230;28;20041;-69
2022/12/26 07:10:56;;;;;;;7.25;2.97;;;;;;;;;;5042129;28;20056;-69
2022/12/26 07:13:23;;;;;;;6.10;2.53;;;;;;;;;;5025233;28;20132;-70
2022/12/26 07:15:49;;;;;;;4.90;2.58;;;;;;;;;;5034847;28;20033;-70
2022/12/26 07:18:16;;;;;;;5.28;2.55;;;;;;;;;;5026353;28;20076;-68
2022/12/26 07:20:43;;;;;;;5.45;2.50;;;;;;;;;;5027469;28;20065;-69
2022/12/26 07:23:09;;;;;;;6.20;2.90;;;;;;;;;;5027575;28;20522;-69
2022/12/26 07:25:39;;;;;;;7.80;2.58;;;;;;;;;;5026817;28;20156;-69
2022/12/26 07:28:06;;;;;;;7.78;2.53;;;;;;;;;;5018039;28;20110;-70
2022/12/26 07:30:32;;;;;;;6.90;2.60;;;;;;;;;;5028026;28;20152;-69
2022/12/26 07:32:59;;;;;;;5.35;2.47;;;;;;;;;;5028710;28;20037;-69
2022/12/26 07:35:26;;;;;;;6.15;2.45;;;;;;;;;;5026760;28;20630;-68
2022/12/26 07:37:52;;;;;;;5.07;2.63;;;;;;;;;;5026788;28;20398;-69
2022/12/26 07:40:19;;;;;;;6.97;3.00;;;;;;;;;;5027846;28;20486;-68
2022/12/26 07:42:46;;;;;;;7.57;2.88;;;;;;;;;;5026712;28;20849;-68
2022/12/26 07:45:12;;;;;;;5.25;2.17;;;;;;;;;;5025006;28;20041;-69
2022/12/26 07:47:39;;;;;;;5.88;2.45;;;;;;;;;;5025240;28;20041;-67
2022/12/26 07:50:06;;;;;;;8.35;2.60;;;;;;;;;;5027884;28;20037;-68
2022/12/26 07:52:32;;;;;;;4.47;2.20;;;;;;;;;;5024981;28;20081;-68
2022/12/26 07:54:59;;;;;;;8.35;2.65;;;;;;;;;;5026171;28;20045;-69
2022/12/26 07:57:26;;;;;;;4.20;1.70;;;;;;;;;;5026745;28;20041;-69
2022/12/26 07:59:52;;;;;;;5.18;2.35;;;;;;;;;;5025627;28;21815;-68
2022/12/26 08:02:19;;;;;;;6.20;2.28;;;;;;;;;;5026433;28;20175;-68
2022/12/26 08:04:46;;;;;;;5.65;2.28;;;;;;;;;;5025496;28;20033;-68
2022/12/26 08:07:13;;;;;;;6.55;2.53;;;;;;;;;;5039630;28;20106;-67
2022/12/26 08:09:41;;;;;;;5.65;2.50;;;;;;;;;;5025448;28;20482;-68
2022/12/26 08:12:08;;;;;;;6.63;2.40;;;;;;;;;;5025845;28;21663;-69
2022/12/26 08:14:36;;;;;;;6.38;2.17;;;;;;;;;;5025549;28;20037;-69
2022/12/26 08:17:03;;;;;;;4.10;1.90;;;;;;;;;;5024542;28;20056;-69
2022/12/26 08:19:30;;;;;;;5.13;1.98;;;;;;;;;;5026409;28;20037;-68
2022/12/26 08:21:56;;;;;;;5.28;2.40;;;;;;;;;;5026325;28;20064;-68
2022/12/26 08:24:23;;;;;;;4.82;2.10;;;;;;;;;;5025404;28;20038;-69
2022/12/26 08:26:50;;;;;;;5.28;2.28;;;;;;;;;;5023149;28;20045;-69
2022/12/26 08:29:16;;;;;;;5.32;2.47;;;;;;;;;;5025201;28;20089;-67
2022/12/26 08:31:43;;;;;;;5.95;2.30;;;;;;;;;;5025207;28;20060;-68
2022/12/26 08:34:10;;;;;;;5.15;2.10;;;;;;;;;;5037570;28;20110;-68
2022/12/26 08:36:37;;;;;;;6.68;2.60;;;;;;;;;;5023140;28;20040;-68
2022/12/26 08:39:03;;;;;;;4.93;2.40;;;;;;;;;;5027359;28;20388;-67
2022/12/26 08:41:30;;;;;;;4.97;2.28;;;;;;;;;;5025705;28;21904;-68
2022/12/26 08:43:57;;;;;;;4.10;1.95;;;;;;;;;;5025427;28;20136;-68
2022/12/26 08:46:23;;;;;;;5.03;2.35;;;;;;;;;;5023698;28;20121;-67
2022/12/26 08:48:50;;;;;;;5.85;2.35;;;;;;;;;;5025951;28;20444;-67
2022/12/26 08:51:21;;;;;;;5.25;2.10;;;;;;;;;;5024168;28;20041;-68
2022/12/26 08:53:48;;;;;;;4.55;2.22;;;;;;;;;;5024492;28;20493;-67
2022/12/26 08:56:21;;;;;;;6.13;2.33;;;;;;;;;;5024382;28;20433;-68
2022/12/26 08:58:48;;;;;;;6.07;2.10;;;;;;;;;;5024557;28;20061;-68
2022/12/26 09:01:16;;;;;;;6.32;2.30;;;;;;;;;;5026228;28;20041;-67
2022/12/26 09:03:43;;;;;;;4.18;1.80;;;;;;;;;;5025771;28;20048;-69
2022/12/26 09:06:11;;;;;;;5.80;2.20;;;;;;;;;;5024375;28;20038;-69
2022/12/26 09:08:38;;;;;;;4.82;2.15;;;;;;;;;;5025208;28;20037;-69
2022/12/26 09:11:06;;;;;;;6.20;2.13;;;;;;;;;;5025472;28;20528;-70
2022/12/26 09:13:33;;;;;;;4.72;2.00;;;;;;;;;;5023903;28;20052;-69
2022/12/26 09:16:22;;;;;;;4.20;1.73;;;;;;;;;;5041524;28;20601;-69
2022/12/26 09:18:53;;;;;;;4.82;1.90;;;;;;;;;;5040629;28;20056;-70
2022/12/26 09:21:19;;;;;;;6.43;1.70;;;;;;;;;;5064058;28;20029;-70
2022/12/26 09:23:46;;;;;;;5.28;2.30;;;;;;;;;;5057793;28;20044;-66
2022/12/26 09:26:19;;;;;;;3.67;1.83;;;;;;;;;;5034893;28;20048;-70
2022/12/26 09:28:46;;;;;;;4.25;1.70;;;;;;;;;;5040422;28;20045;-69
2022/12/26 09:31:14;;;;;;;7.15;1.52;;;;;;;;;;5050453;28;20037;-67
2022/12/26 09:33:41;;;;;;;3.67;1.35;;;;;;;;;;5047160;28;20530;-67
2022/12/26 09:36:09;;;;;;;4.10;1.30;;;;;;;;;;5043819;28;20040;-67
2022/12/26 09:38:36;;;;;;;3.80;1.23;;;;;;;;;;5047617;28;20029;-67
2022/12/26 09:41:09;;;;;;;4.28;1.30;;;;;;;;;;5049547;28;20044;-67
2022/12/26 09:43:53;;;;;;;3.50;1.40;;;;;;;;;;5048671;28;20099;-67
2022/12/26 09:46:29;;;;;;;5.75;1.50;;;;;;;;;;5046497;28;20278;-67
2022/12/26 09:49:02;;;;;;;3.92;1.25;;;;;;;;;;5046755;28;20037;-67
2022/12/26 09:51:28;;;;;;;;;;;;;;;;;;5048628;28;20037;-68
2022/12/26 09:53:55;;;;;;;3.30;1.10;;;;;;;;;;5057887;28;19940;-67
2022/12/26 09:56:23;;;;;;;4.40;1.40;;;;;;;;;;5032533;28;20119;-67
2022/12/26 09:58:53;;;;;;;3.80;1.35;;;;;;;;;;5030454;28;20044;-68
2022/12/26 10:01:25;;;;;;;3.83;1.10;;;;;;;;;;5028375;28;21768;-68
2022/12/26 10:03:55;;;;;;;8.35;1.77;;;;;;;;;;5049666;28;20056;-68
2022/12/26 10:06:21;;;;;;;3.83;1.58;;;;;;;;;;5049973;28;20040;-68
2022/12/26 10:09:03;;;;;;;3.35;1.23;;;;;;;;;;5048345;28;20056;-68
2022/12/26 10:11:36;;;;;;;4.43;1.45;;;;;;;;;;5048521;28;20041;-67
2022/12/26 10:14:25;;;;;;;5.03;1.10;;;;;;;;;;5048374;28;20068;-68
2022/12/26 10:17:16;;;;;;;3.75;1.55;;;;;;;;;;5039056;28;20033;-68
2022/12/26 10:19:56;;;;;;;3.17;1.30;;;;;;;;;;5047711;28;20108;-68
2022/12/26 10:22:43;;;;;;;4.00;1.45;;;;;;;;;;5031872;28;20037;-68
2022/12/26 10:25:28;;;;;;;3.47;1.20;;;;;;;;;;5043305;28;20037;-69
2022/12/26 10:27:54;;;;;;;4.97;1.60;;;;;;;;;;5039573;28;20076;-68
2022/12/26 10:30:27;;;;;;;5.38;1.80;;;;;;;;;;5047923;28;20075;-68
2022/12/26 10:32:59;;;;;;;6.30;1.80;;;;;;;;;;5036599;28;20445;-67
2022/12/26 10:35:34;;;;;;;4.45;1.50;;;;;;;;;;5027421;28;20319;-66
2022/12/26 10:38:23;;;;;;;5.35;1.70;;;;;;;;;;5027444;28;20411;-67
2022/12/26 10:40:52;;;;;;;9.65;1.60;;;;;;;;;;5023709;28;20045;-68
2022/12/26 10:43:18;;;;;;;3.75;1.20;;;;;;;;;;5027985;28;20041;-70
2022/12/26 10:45:48;;;;;;;5.35;1.75;;;;;;;;;;5029714;28;20076;-67
2022/12/26 10:48:16;;;;;;;3.55;1.40;;;;;;;;;;5028571;28;20037;-67
2022/12/26 10:50:47;;;;;;;4.60;1.50;;;;;;;;;;5028531;28;20049;-69
2022/12/26 10:53:15;;;;;;;3.80;1.30;;;;;;;;;;5045848;28;20048;-67
2022/12/26 10:55:42;;;;;;;3.40;1.23;;;;;;;;;;5040319;28;20528;-67
2022/12/26 10:58:32;;;;;;;3.70;1.20;;;;;;;;;;5028302;28;20138;-67
2022/12/26 11:01:19;;;;;;;3.50;1.30;;;;;;;;;;5041940;28;20045;-67
2022/12/26 11:03:56;;;;;;;3.15;1.00;;;;;;;;;;5023433;28;20063;-67
2022/12/26 11:06:25;;;;;;;2.50;0.90;;;;;;;;;;5026092;28;20037;-66
2022/12/26 11:08:52;;;;;;;4.72;1.10;;;;;;;;;;5028267;28;20045;-67
2022/12/26 11:11:26;;;;;;;4.10;1.30;;;;;;;;;;5028924;28;20037;-67
2022/12/26 11:13:54;;;;;;;3.67;1.00;;;;;;;;;;5026330;28;20067;-67
2022/12/26 11:16:29;;;;;;;5.88;1.05;;;;;;;;;;5025346;28;20038;-67
2022/12/26 11:18:56;;;;;;;3.40;0.95;;;;;;;;;;5027934;28;20033;-67
2022/12/26 11:21:46;;;;;;;2.35;0.85;;;;;;;;;;5026847;28;21694;-67
2022/12/26 11:24:14;;;;;;;3.90;0.82;;;;;;;;;;5022167;28;20079;-67
2022/12/26 11:26:41;;;;;;;2.85;1.10;;;;;;;;;;5023919;28;20033;-67
2022/12/26 11:29:11;;;;;;;3.22;1.00;;;;;;;;;;5024326;28;20032;-67
2022/12/26 11:31:43;;;;;;;3.08;1.08;;;;;;;;;;5021414;28;20076;-67
2022/12/26 11:34:11;;;;;;;3.08;0.90;;;;;;;;;;5024999;28;20048;-66
2022/12/26 11:36:39;;;;;;;2.88;0.80;;;;;;;;;;5038741;28;20029;-67
2022/12/26 11:39:20;;;;;;;3.03;1.00;;;;;;;;;;5042960;28;20032;-66
2022/12/26 11:41:48;;;;;;;4.05;0.98;;;;;;;;;;5040049;28;20032;-67
2022/12/26 11:44:40;;;;;;;2.40;0.90;;;;;;;;;;5042012;28;20048;-68
2022/12/26 11:47:09;;;;;;;3.72;0.77;;;;;;;;;;5022614;28;20130;-68
2022/12/26 11:49:36;;;;;;;3.10;0.90;;;;;;;;;;5040081;28;20051;-67
2022/12/26 11:52:22;;;;;;;2.58;0.70;;;;;;;;;;5040903;28;20040;-67
2022/12/26 11:54:50;;;;;;;2.45;0.70;;;;;;;;;;5019855;28;20192;-68
2022/12/26 11:57:27;;;;;;;3.47;0.80;;;;;;;;;;5027457;28;20130;-67
2022/12/26 11:59:55;;;;;;;2.45;0.68;;;;;;;;;;5027689;28;20037;-67
2022/12/26 12:02:32;;;;;;;2.28;0.70;;;;;;;;;;5028628;28;20739;-67
2022/12/26 12:05:00;;;;;;;2.13;0.70;;;;;;;;;;5029254;28;20046;-68
2022/12/26 12:07:39;;;;;;;1.98;0.60;;;;;;;;;;5028767;28;20041;-68
2022/12/26 12:10:08;;;;;;;2.95;0.80;;;;;;;;;;5027534;28;20556;-68
2022/12/26 12:12:43;;;;;;;2.70;0.80;;;;;;;;;;5027463;28;20053;-69
2022/12/26 12:15:11;;;;;;;2.90;0.60;;;;;;;;;;5025373;28;20056;-68
2022/12/26 12:17:56;;;;;;;4.38;0.70;;;;;;;;;;5024179;28;20131;-68
2022/12/26 12:20:31;;;;;;;3.35;0.80;;;;;;;;;;5025353;28;20037;-67
2022/12/26 12:23:06;;;;;;;3.22;0.80;;;;;;;;;;5026224;28;20041;-67
2022/12/26 12:25:42;;;;;;;2.95;0.88;;;;;;;;;;5025554;28;20038;-67
2022/12/26 12:28:27;;;;;;;4.05;0.80;;;;;;;;;;5026160;28;20452;-67
2022/12/26 12:31:12;;;;;;;2.72;0.70;;;;;;;;;;5032692;28;20041;-68
2022/12/26 12:33:50;;;;;;;2.10;0.70;;;;;;;;;;5025288;28;22321;-68
2022/12/26 12:36:24;;;;;;;2.55;0.70;;;;;;;;;;5024355;28;20075;-68
2022/12/26 12:38:51;;;;;;;2.28;0.70;;;;;;;;;;5024020;28;20079;-68
2022/12/26 12:41:33;;;;;;;2.50;0.80;;;;;;;;;;5024772;28;20140;-68
2022/12/26 12:44:02;;;;;;;1.83;0.68;;;;;;;;;;5026015;28;20049;-68
2022/12/26 12:46:35;;;;;;;2.70;0.70;;;;;;;;;;5008086;28;20045;-68
2022/12/26 12:49:13;;;;;;;3.45;0.70;;;;;;;;;;5026366;28;20051;-66
2022/12/26 12:51:40;;;;;;;1.77;0.50;;;;;;;;;;5024710;28;20053;-68
2022/12/26 12:54:25;;;;;;;2.80;0.80;;;;;;;;;;5026098;28;20102;-68
2022/12/26 12:56:52;;;;;;;1.83;0.63;;;;;;;;;;5027817;28;20076;-68
2022/12/26 12:59:37;;;;;;;2.45;0.70;;;;;;;;;;5024579;28;20036;-68
2022/12/26 13:02:09;;;;;;;1.98;0.50;;;;;;;;;;5021885;28;20092;-68
2022/12/26 13:04:41;;;;;;;1.45;0.50;;;;;;;;;;5025615;28;20144;-69
2022/12/26 13:07:31;;;;;;;4.97;0.70;;;;;;;;;;5025449;28;20048;-68
2022/12/26 13:10:00;;;;;;;3.58;0.73;;;;;;;;;;5026957;28;20489;-68
2022/12/26 13:12:29;;;;;;;1.92;0.65;;;;;;;;;;5024426;28;20132;-68
2022/12/26 13:15:01;;;;;;;2.45;0.60;;;;;;;;;;5029784;28;20076;-69
2022/12/26 13:17:30;;;;;;;4.60;0.93;;;;;;;;;;5039438;28;20159;-68
2022/12/26 13:20:00;;;;;;;2.83;0.80;;;;;;;;;;5025655;28;20042;-68
2022/12/26 13:24:22;;;;;;;3.95;1.05;;;;;;;;;;5022763;28;20123;-68
2022/12/26 13:25:18;;;;;;;2.70;0.80;;;;;;;;;;5024625;28;20585;-68
2022/12/26 13:27:46;;;;;;;1.98;0.70;;;;;;;;;;5024307;28;20045;-69
2022/12/26 13:30:15;;;;;;;2.90;0.80;;;;;;;;;;5024933;28;20128;-68
2022/12/26 13:32:42;;;;;;;2.53;0.80;;;;;;;;;;5025017;28;20075;-67
2022/12/26 13:35:27;;;;;;;2.90;0.80;;;;;;;;;;5025149;28;20513;-67
2022/12/26 13:37:55;;;;;;;1.90;0.68;;;;;;;;;;5023937;28;20045;-67
2022/12/26 13:40:24;;;;;;;2.28;0.80;;;;;;;;;;5026891;28;20037;-68
2022/12/26 13:45:56;;;;;;;2.50;0.82;;;;;;;;;;5025122;28;20513;-69
2022/12/26 13:48:28;;;;;;;2.83;1.00;;;;;;;;;;5024743;28;20157;-69
2022/12/26 13:50:55;;;;;;;3.28;0.90;;;;;;;;;;5026279;28;20361;-68
2022/12/26 13:53:24;;;;;;;4.63;1.00;;;;;;;;;;5024614;28;20059;-69
2022/12/26 13:55:54;;;;;;;2.92;0.80;;;;;;;;;;5026509;28;20494;-68
2022/12/26 13:58:33;;;;;;;4.70;1.10;;;;;;;;;;5024043;28;20071;-67
2022/12/26 14:01:03;;;;;;;3.00;0.98;;;;;;;;;;5026394;28;20045;-68
2022/12/26 14:03:57;;;;;;;2.70;0.90;;;;;;;;;;5027075;28;20045;-68
2022/12/26 14:06:23;;;;;;;;;;;;;;;;;;5028726;28;20041;-68
2022/12/26 14:09:08;;;;;;;4.60;0.80;;;;;;;;;;5029862;28;19936;-68
2022/12/26 14:11:47;;;;;;;3.10;0.82;;;;;;;;;;5027853;28;20086;-68
2022/12/26 14:14:32;;;;;;;2.78;0.80;;;;;;;;;;5028637;28;20060;-69
2022/12/26 14:16:59;;;;;;;4.15;1.00;;;;;;;;;;5027385;28;20065;-68
2022/12/26 14:19:41;;;;;;;2.05;0.70;;;;;;;;;;5028673;28;20069;-69
2022/12/26 14:22:24;;;;;;;5.15;0.80;;;;;;;;;;5028428;28;20051;-68
2022/12/26 14:24:51;;;;;;;2.50;0.90;;;;;;;;;;5027932;28;20686;-69
2022/12/26 14:27:37;;;;;;;2.95;0.90;;;;;;;;;;5029993;28;20136;-68
2022/12/26 14:30:22;;;;;;;4.90;0.80;;;;;;;;;;5028106;28;20037;-69
2022/12/26 14:32:55;;;;;;;3.47;0.82;;;;;;;;;;5027212;28;20045;-68
2022/12/26 14:35:28;;;;;;;3.95;0.90;;;;;;;;;;5034948;28;20393;-69
2022/12/26 14:37:54;;;;;;;1.80;0.68;;;;;;;;;;5028464;28;20140;-68
2022/12/26 14:40:27;;;;;;;2.90;0.90;;;;;;;;;;5026431;28;20705;-68
2022/12/26 14:43:09;;;;;;;5.18;1.10;;;;;;;;;;5027214;28;20064;-68
2022/12/26 14:45:36;;;;;;;3.60;0.98;;;;;;;;;;5027738;28;20044;-68
2022/12/26 14:48:20;;;;;;;2.42;0.75;;;;;;;;;;5029982;28;20402;-68
2022/12/26 14:50:51;;;;;;;2.83;0.88;;;;;;;;;;5029812;28;20044;-68
2022/12/26 14:53:27;;;;;;;3.35;0.95;;;;;;;;;;5025123;28;20045;-69
2022/12/26 14:56:00;;;;;;;5.75;1.00;;;;;;;;;;5027265;28;20045;-68
2022/12/26 14:58:27;;;;;;;4.63;1.25;;;;;;;;;;5025875;28;20048;-68
2022/12/26 15:00:54;;;;;;;4.13;0.80;;;;;;;;;;5030084;28;20124;-67
2022/12/26 15:03:29;;;;;;;2.80;0.82;;;;;;;;;;5042701;28;20049;-68
2022/12/26 15:06:01;;;;;;;5.63;1.48;;;;;;;;;;5021955;28;20044;-68
2022/12/26 15:08:40;;;;;;;7.00;1.40;;;;;;;;;;5036996;28;20596;-68
2022/12/26 15:11:19;;;;;;;5.70;1.52;;;;;;;;;;5026838;28;20029;-68
2022/12/26 15:13:48;;;;;;;6.63;1.15;;;;;;;;;;5026570;28;20099;-68
2022/12/26 15:16:24;;;;;;;3.50;1.10;;;;;;;;;;5026658;28;20041;-69
2022/12/26 15:19:09;;;;;;;3.78;0.85;;;;;;;;;;5026901;28;20037;-68
2022/12/26 15:21:46;;;;;;;3.40;1.00;;;;;;;;;;5040405;28;20056;-70
2022/12/26 15:24:15;;;;;;;3.55;1.17;;;;;;;;;;5028076;28;20045;-68
2022/12/26 15:27:00;;;;;;;4.78;1.10;;;;;;;;;;5025660;28;20043;-68
2022/12/26 15:29:45;;;;;;;3.72;1.38;;;;;;;;;;5031518;28;20489;-70
2022/12/26 15:32:16;;;;;;;5.38;1.30;;;;;;;;;;5028916;28;20061;-67
2022/12/26 15:34:45;;;;;;;5.28;1.17;;;;;;;;;;5043160;28;20049;-68
2022/12/26 15:37:15;;;;;;;3.78;1.13;;;;;;;;;;5026246;28;20103;-68
2022/12/26 15:39:42;;;;;;;3.17;1.23;;;;;;;;;;5026336;28;20191;-68
2022/12/26 15:42:12;;;;;;;4.00;1.10;;;;;;;;;;5027475;28;20073;-68
2022/12/26 15:44:56;;;;;;;3.28;0.90;;;;;;;;;;5023155;28;20029;-68
2022/12/26 15:47:37;;;;;;;4.20;1.27;;;;;;;;;;5027441;28;20033;-68
2022/12/26 15:50:03;;;;;;;5.32;1.08;;;;;;;;;;5026021;28;20029;-68
2022/12/26 15:52:30;;;;;;;3.58;1.00;;;;;;;;;;5025076;28;20064;-68
2022/12/26 15:55:02;;;;;;;3.95;1.00;;;;;;;;;;5026475;28;20052;-68
2022/12/26 15:57:38;;;;;;;3.27;1.20;;;;;;;;;;5025234;28;20052;-69
2022/12/26 16:00:06;;;;;;;6.47;1.40;;;;;;;;;;5026239;28;20306;-68
2022/12/26 16:02:36;;;;;;;7.65;1.70;;;;;;;;;;5027301;28;20160;-68
2022/12/26 16:05:14;;;;;;;7.45;1.75;;;;;;;;;;5024759;28;20048;-69
2022/12/26 16:07:58;;;;;;;4.38;1.17;;;;;;;;;;5025582;28;20140;-68
2022/12/26 16:10:25;;;;;;;6.03;1.63;;;;;;;;;;5025493;28;20125;-66
2022/12/26 16:12:58;;;;;;;7.10;1.95;;;;;;;;;;5026140;28;20124;-68
2022/12/26 16:15:25;;;;;;;9.75;2.10;;;;;;;;;;5025898;28;20037;-69
2022/12/26 16:17:52;;;;;;;7.75;2.00;;;;;;;;;;5025089;28;20048;-69
2022/12/26 16:22:42;;;;;;;4.68;1.52;;;;;;;;;;5025748;28;20128;-71
2022/12/26 16:23:05;;;;;;;9.43;1.70;;;;;;;;;;5027066;28;20038;-68
2022/12/26 16:25:32;;;;;;;5.60;2.30;;;;;;;;;;5027299;28;20026;-69
2022/12/26 16:27:59;;;;;;;5.40;2.25;;;;;;;;;;5027403;28;20041;-69
2022/12/26 16:30:33;;;;;;;9.45;3.03;;;;;;;;;;5025937;28;20048;-67
2022/12/26 16:33:01;;;;;;;8.18;2.22;;;;;;;;;;5026639;28;20044;-69
2022/12/26 16:35:35;;;;;;;5.10;1.92;;;;;;;;;;5041850;28;20045;-68
2022/12/26 16:38:03;;;;;;;6.60;2.40;;;;;;;;;;5039710;28;20036;-68
2022/12/26 16:40:30;;;;;;;8.35;2.38;;;;;;;;;;5026812;28;20091;-68
2022/12/26 16:43:21;;;;;;;8.05;2.22;;;;;;;;;;5027247;28;20440;-69
2022/12/26 16:45:59;;;;;;;8.55;1.88;;;;;;;;;;5038255;28;20053;-69
2022/12/26 16:48:27;;;;;;;5.35;1.77;;;;;;;;;;5025629;28;20066;-70
2022/12/26 16:50:58;;;;;;;7.05;2.03;;;;;;;;;;5045974;28;20043;-69
2022/12/26 16:53:34;;;;;;;6.32;1.88;;;;;;;;;;5042228;28;20060;-68
2022/12/26 16:56:17;;;;;;;5.80;2.22;;;;;;;;;;5041642;28;20060;-68
2022/12/26 16:58:43;;;;;;;7.15;2.50;;;;;;;;;;5056573;28;20045;-68
2022/12/26 17:01:15;;;;;;;4.95;2.03;;;;;;;;;;5035592;28;20033;-68
2022/12/26 17:04:03;;;;;;;10.95;2.15;;;;;;;;;;5031485;28;20033;-68
2022/12/26 17:06:31;;;;;;;8.30;2.25;;;;;;;;;;5023023;28;20041;-68
2022/12/26 17:09:03;;;;;;;6.22;1.67;;;;;;;;;;5024451;28;20854;-68
2022/12/26 17:11:34;;;;;;;7.80;1.60;;;;;;;;;;5023409;28;20040;-69